Time;durP1;ratioP1;P1;durP2;ratioP2;P2;SDS_P1;SDS_P2;PMS_P1;PMS_P2;Temp;Humidity;BMP_temperature;BMP_pressure;BME280_temperature;BME280_humidity;BME280_pressure;Samples;Min_cycle;Max_cycle;Signal;HPM_P1;HPM_P2
2022/03/19 00:02:22;;;;;;;22.63;9.00;;;11.10;46.70;;;;;;5111643;27;20453;-86
2022/03/19 00:04:49;;;;;;;20.60;9.43;;;11.10;46.50;;;;;;5113447;27;20471;-85
2022/03/19 00:07:16;;;;;;;18.63;7.80;;;11.00;45.70;;;;;;5129352;27;20445;-85
2022/03/19 00:09:43;;;;;;;21.93;9.30;;;11.10;46.10;;;;;;5092918;27;20454;-84
2022/03/19 00:12:14;;;;;;;17.97;9.50;;;11.10;46.30;;;;;;5132028;27;20450;-86
2022/03/19 00:14:42;;;;;;;20.07;9.33;;;11.10;45.90;;;;;;5127682;27;20485;-85
2022/03/19 00:17:11;;;;;;;21.37;9.60;;;11.20;46.10;;;;;;5118857;27;20457;-85
2022/03/19 00:19:38;;;;;;;11.47;7.90;;;11.20;46.00;;;;;;5111855;27;20969;-85
2022/03/19 00:22:05;;;;;;;19.40;8.37;;;11.20;45.60;;;;;;5130925;27;20458;-85
2022/03/19 00:24:33;;;;;;;15.97;8.50;;;11.20;45.70;;;;;;5129448;27;20666;-85
2022/03/19 00:27:00;;;;;;;22.30;9.90;;;11.20;45.70;;;;;;5112509;27;20458;-86
2022/03/19 00:29:27;;;;;;;18.47;9.20;;;11.10;45.50;;;;;;5100371;27;20798;-85
2022/03/19 00:31:54;;;;;;;17.03;8.83;;;11.10;45.60;;;;;;5126712;27;20464;-85
2022/03/19 00:34:22;;;;;;;15.67;8.17;;;11.00;45.60;;;;;;5109808;27;20468;-85
2022/03/19 00:36:50;;;;;;;19.20;9.63;;;11.00;45.60;;;;;;5101728;27;20457;-85
2022/03/19 00:39:17;;;;;;;13.57;8.27;;;11.00;45.70;;;;;;5127814;27;20438;-84
2022/03/19 00:41:44;;;;;;;15.63;9.03;;;11.00;45.90;;;;;;5130611;27;20445;-85
2022/03/19 00:44:11;;;;;;;18.27;8.77;;;11.00;46.00;;;;;;5127147;27;20542;-84
2022/03/19 00:46:38;;;;;;;18.17;7.63;;;10.90;45.80;;;;;;5092942;27;20654;-86
2022/03/19 00:49:05;;;;;;;20.20;8.70;;;10.80;45.60;;;;;;5127927;27;20462;-85
2022/03/19 00:51:36;;;;;;;16.87;7.60;;;10.60;45.30;;;;;;5094483;27;20975;-85
2022/03/19 00:54:04;;;;;;;14.77;8.80;;;10.40;46.10;;;;;;5127974;27;20457;-85
2022/03/19 00:56:32;;;;;;;19.20;8.57;;;10.50;46.50;;;;;;5086594;27;21256;-84
2022/03/19 00:58:59;;;;;;;17.20;7.73;;;10.50;46.60;;;;;;5109976;27;21184;-85
2022/03/19 01:01:26;;;;;;;12.40;7.47;;;10.50;46.60;;;;;;5130273;27;20457;-85
2022/03/19 01:03:54;;;;;;;14.33;6.83;;;10.60;46.20;;;;;;5126888;27;20445;-85
2022/03/19 01:06:21;;;;;;;17.00;8.17;;;10.60;46.10;;;;;;5097417;27;20931;-85
2022/03/19 01:08:49;;;;;;;17.10;8.10;;;10.50;45.70;;;;;;5125705;27;20441;-85
2022/03/19 01:11:17;;;;;;;16.60;7.97;;;10.50;45.70;;;;;;5109721;27;20450;-85
2022/03/19 01:13:44;;;;;;;12.93;7.40;;;10.40;46.10;;;;;;5108827;27;20819;-86
2022/03/19 01:16:11;;;;;;;16.27;7.57;;;10.30;46.00;;;;;;5118352;27;21015;-85
2022/03/19 01:18:38;;;;;;;12.67;7.87;;;10.10;47.00;;;;;;5109707;27;21037;-85
2022/03/19 01:21:08;;;;;;;15.93;8.73;;;10.10;47.00;;;;;;5109853;27;20921;-84
2022/03/19 01:23:34;;;;;;;17.03;7.40;;;10.20;47.30;;;;;;5119450;27;20448;-83
2022/03/19 01:26:03;;;;;;;10.13;6.63;;;10.30;46.80;;;;;;5127544;27;20479;-85
2022/03/19 01:28:30;;;;;;;12.90;6.27;;;10.30;46.40;;;;;;5109478;27;20465;-85
2022/03/19 01:30:57;;;;;;;13.77;6.50;;;10.30;46.40;;;;;;5107673;27;21112;-85
2022/03/19 01:33:24;;;;;;;12.50;7.13;;;10.40;46.50;;;;;;5118931;27;20528;-85
2022/03/19 01:35:51;;;;;;;17.20;8.00;;;10.30;46.50;;;;;;5108285;27;20478;-86
2022/03/19 01:38:18;;;;;;;17.77;8.03;;;10.30;46.70;;;;;;5106684;27;20776;-85
2022/03/19 01:40:45;;;;;;;13.70;6.83;;;10.30;46.50;;;;;;5125378;27;21175;-83
2022/03/19 01:43:13;;;;;;;16.10;6.20;;;10.30;46.20;;;;;;5100438;27;20449;-84
2022/03/19 01:45:40;;;;;;;15.03;6.90;;;10.30;46.40;;;;;;5127782;27;20583;-85
2022/03/19 01:48:07;;;;;;;11.87;6.33;;;10.30;46.50;;;;;;5127894;27;20445;-85
2022/03/19 01:50:34;;;;;;;11.80;6.00;;;10.30;46.30;;;;;;5108127;28;20460;-84
2022/03/19 01:53:01;;;;;;;11.40;6.80;;;10.30;46.40;;;;;;5117300;27;20446;-84
2022/03/19 01:55:29;;;;;;;13.40;6.50;;;10.20;46.50;;;;;;5127970;27;20473;-85
2022/03/19 01:57:57;;;;;;;15.87;6.33;;;10.20;46.10;;;;;;5101586;27;20448;-85
2022/03/19 02:00:26;;;;;;;12.33;6.33;;;10.20;46.10;;;;;;5126827;27;20940;-86
2022/03/19 02:02:54;;;;;;;14.17;7.23;;;10.20;45.90;;;;;;5096764;27;20471;-86
2022/03/19 02:05:23;;;;;;;12.57;6.57;;;10.20;46.50;;;;;;5092962;27;20531;-84
2022/03/19 02:07:52;;;;;;;18.87;7.20;;;10.20;46.10;;;;;;5118883;27;20491;-85
2022/03/19 02:10:21;;;;;;;21.47;6.73;;;10.20;45.90;;;;;;5090667;27;20438;-86
2022/03/19 02:12:49;;;;;;;17.03;6.77;;;10.10;46.00;;;;;;5095438;27;20463;-85
2022/03/19 02:15:16;;;;;;;9.50;6.47;;;10.10;45.80;;;;;;5114103;27;20533;-86
2022/03/19 02:17:45;;;;;;;11.90;6.30;;;10.10;46.00;;;;;;5121387;27;20455;-85
2022/03/19 02:20:12;;;;;;;16.50;6.20;;;10.10;46.10;;;;;;5095953;27;20449;-84
2022/03/19 02:22:40;;;;;;;11.00;6.13;;;10.10;46.00;;;;;;5102067;27;20457;-85
2022/03/19 02:27:54;;;;;;;10.73;6.63;;;10.10;46.20;;;;;;5117875;27;20936;-84
2022/03/19 02:30:21;;;;;;;9.33;5.63;;;9.90;47.30;;;;;;5112636;27;20450;-86
2022/03/19 02:32:50;;;;;;;13.20;6.00;;;9.90;47.20;;;;;;5114513;27;20445;-85
2022/03/19 02:35:18;;;;;;;9.20;5.07;;;9.90;47.40;;;;;;5089573;27;20469;-85
2022/03/19 02:37:47;;;;;;;13.37;6.47;;;9.80;47.60;;;;;;5112816;27;20486;-83
2022/03/19 02:40:17;;;;;;;16.47;5.63;;;9.90;47.40;;;;;;5113182;27;20445;-85
2022/03/19 02:42:44;;;;;;;17.43;6.07;;;9.80;46.90;;;;;;5133185;27;20456;-85
2022/03/19 02:45:11;;;;;;;11.60;5.23;;;9.90;47.30;;;;;;5107064;27;20805;-85
2022/03/19 02:47:56;;;;;;;14.83;5.70;;;9.60;47.70;;;;;;5113235;27;20961;-83
2022/03/19 02:50:25;;;;;;;10.60;5.73;;;9.40;47.60;;;;;;5116567;27;20434;-86
2022/03/19 02:52:52;;;;;;;15.90;5.53;;;9.40;47.70;;;;;;5114004;27;20553;-84
2022/03/19 02:55:21;;;;;;;13.17;6.00;;;9.20;48.30;;;;;;5135900;27;20477;-86
2022/03/19 02:57:47;;;;;;;15.13;5.13;;;8.90;48.80;;;;;;5131914;27;20649;-86
2022/03/19 03:00:15;;;;;;;14.43;6.40;;;8.80;49.40;;;;;;5131412;27;20533;-85
2022/03/19 03:02:43;;;;;;;13.90;6.27;;;8.60;49.80;;;;;;5114216;27;20453;-85
2022/03/19 03:05:12;;;;;;;11.27;5.73;;;8.70;50.10;;;;;;5133253;27;20571;-84
2022/03/19 03:07:39;;;;;;;11.77;5.40;;;8.80;49.90;;;;;;5133218;27;20516;-85
2022/03/19 03:10:07;;;;;;;16.13;5.40;;;8.80;49.80;;;;;;5117462;27;20450;-86
2022/03/19 03:12:36;;;;;;;14.37;5.80;;;9.00;49.40;;;;;;5116312;27;20453;-85
2022/03/19 03:15:04;;;;;;;13.73;6.63;;;9.00;49.60;;;;;;5113283;27;20524;-84
2022/03/19 03:17:33;;;;;;;10.47;5.30;;;9.10;49.10;;;;;;5098403;27;20853;-85
2022/03/19 03:20:00;;;;;;;17.00;6.70;;;9.10;49.10;;;;;;5114008;27;21028;-84
2022/03/19 03:22:27;;;;;;;15.43;6.27;;;9.00;48.80;;;;;;5133659;27;20441;-84
2022/03/19 03:24:55;;;;;;;12.17;5.87;;;9.00;49.40;;;;;;5104514;27;20473;-84
2022/03/19 03:27:22;;;;;;;15.33;6.80;;;9.10;48.70;;;;;;5112810;27;20466;-85
2022/03/19 03:29:52;;;;;;;18.93;7.17;;;9.00;48.90;;;;;;5131163;27;20463;-85
2022/03/19 03:32:19;;;;;;;16.87;6.70;;;9.10;49.20;;;;;;5096121;27;20453;-85
2022/03/19 03:34:45;;;;;;;14.60;5.60;;;9.00;49.10;;;;;;5112326;27;21005;-85
2022/03/19 03:37:12;;;;;;;17.27;6.83;;;9.10;48.70;;;;;;5118231;27;21059;-85
2022/03/19 03:39:39;;;;;;;14.67;5.90;;;9.20;48.60;;;;;;5113077;27;20532;-85
2022/03/19 03:42:07;;;;;;;16.33;6.10;;;9.10;48.40;;;;;;5102180;27;20447;-85
2022/03/19 03:44:34;;;;;;;15.07;6.37;;;9.10;48.60;;;;;;5112654;27;20541;-85
2022/03/19 03:47:03;;;;;;;11.13;6.27;;;8.90;49.40;;;;;;5133845;27;20453;-84
2022/03/19 03:49:30;;;;;;;7.50;4.60;;;8.60;49.70;;;;;;5114368;27;20479;-85
2022/03/19 03:51:58;;;;;;;13.40;6.40;;;8.70;50.00;;;;;;5113273;27;20545;-85
2022/03/19 03:54:25;;;;;;;11.40;6.30;;;8.60;49.90;;;;;;5098752;27;20477;-85
2022/03/19 03:56:52;;;;;;;19.23;6.93;;;8.70;50.00;;;;;;5130686;27;20469;-84
2022/03/19 03:59:23;;;;;;;12.30;5.93;;;8.70;49.70;;;;;;5096868;27;20830;-85
2022/03/19 04:01:50;;;;;;;15.30;6.73;;;8.70;49.80;;;;;;5121368;27;20460;-85
2022/03/19 04:04:18;;;;;;;13.83;5.87;;;8.70;49.60;;;;;;5112016;27;20568;-85
2022/03/19 04:06:45;;;;;;;9.20;6.00;;;8.70;50.00;;;;;;5104331;27;20430;-84
2022/03/19 04:09:12;;;;;;;25.43;8.20;;;8.70;49.80;;;;;;5131765;27;20453;-85
2022/03/19 04:11:39;;;;;;;12.33;6.13;;;8.60;50.10;;;;;;5133697;27;20442;-86
2022/03/19 04:14:06;;;;;;;9.90;6.40;;;8.60;50.40;;;;;;5132260;27;20434;-85
2022/03/19 04:16:33;;;;;;;11.80;5.83;;;8.40;51.60;;;;;;5121416;27;20569;-85
2022/03/19 04:19:00;;;;;;;12.27;5.33;;;8.50;51.00;;;;;;5104231;27;20453;-85
2022/03/19 04:21:28;;;;;;;12.00;5.27;;;8.50;50.90;;;;;;5131525;27;20464;-85
2022/03/19 04:23:56;;;;;;;17.37;6.37;;;8.30;51.40;;;;;;5113887;27;20495;-85
2022/03/19 04:26:23;;;;;;;11.80;6.07;;;8.30;51.30;;;;;;5131886;27;20456;-85
2022/03/19 04:28:50;;;;;;;10.00;5.17;;;8.40;51.10;;;;;;5103022;27;20446;-82
2022/03/19 04:31:17;;;;;;;13.30;6.23;;;8.30;51.10;;;;;;5098884;27;20453;-85
2022/03/19 04:33:44;;;;;;;8.13;5.10;;;8.70;50.80;;;;;;5110829;27;20448;-85
2022/03/19 04:38:57;;;;;;;13.23;5.20;;;9.00;49.60;;;;;;5102806;27;20450;-85
2022/03/19 04:41:24;;;;;;;13.03;6.63;;;9.10;48.90;;;;;;5110894;27;20434;-85
2022/03/19 04:43:51;;;;;;;11.37;5.97;;;9.10;48.60;;;;;;5112556;27;20464;-85
2022/03/19 04:46:18;;;;;;;12.50;6.47;;;9.10;48.40;;;;;;5130165;27;20458;-85
2022/03/19 04:48:46;;;;;;;12.23;6.43;;;9.20;48.40;;;;;;5115280;27;20463;-85
2022/03/19 04:51:14;;;;;;;15.10;6.07;;;9.10;48.30;;;;;;5114610;27;20450;-86
2022/03/19 04:53:42;;;;;;;25.30;10.17;;;9.10;48.10;;;;;;5115737;27;20839;-85
2022/03/19 04:56:10;;;;;;;34.67;14.10;;;9.10;48.10;;;;;;5112916;27;20525;-85
2022/03/19 04:58:38;;;;;;;19.43;8.13;;;9.10;48.00;;;;;;5087715;27;20948;-85
2022/03/19 05:01:05;;;;;;;20.50;8.33;;;9.10;48.00;;;;;;5130693;27;20454;-86
2022/03/19 05:03:32;;;;;;;13.57;6.83;;;9.10;47.90;;;;;;5112969;27;20472;-85
2022/03/19 05:05:59;;;;;;;11.93;5.83;;;9.10;47.90;;;;;;5093407;27;20464;-85
2022/03/19 05:08:25;;;;;;;12.37;6.53;;;9.00;47.80;;;;;;5112868;27;20951;-84
2022/03/19 05:13:38;;;;;;;19.43;6.00;;;9.00;47.90;;;;;;5113214;27;20525;-85
2022/03/19 05:16:05;;;;;;;13.60;6.23;;;8.90;48.10;;;;;;5128559;27;20480;-86
2022/03/19 05:18:32;;;;;;;15.17;5.40;;;8.80;48.00;;;;;;5121690;27;20454;-85
2022/03/19 05:20:59;;;;;;;9.27;5.40;;;8.70;48.20;;;;;;5104681;27;20936;-85
2022/03/19 05:23:26;;;;;;;14.60;6.03;;;8.70;48.40;;;;;;5092431;27;20444;-84
2022/03/19 05:25:53;;;;;;;8.90;4.40;;;8.70;48.60;;;;;;5118911;27;20462;-86
2022/03/19 05:28:20;;;;;;;14.73;5.23;;;8.70;48.80;;;;;;5120021;27;20457;-85
2022/03/19 05:30:49;;;;;;;14.33;5.00;;;8.70;48.90;;;;;;5131764;27;20456;-85
2022/03/19 05:33:16;;;;;;;15.83;5.50;;;8.70;48.50;;;;;;5099904;27;20449;-85
2022/03/19 05:35:44;;;;;;;7.90;4.60;;;8.80;48.50;;;;;;5130273;27;20484;-85
2022/03/19 05:38:12;;;;;;;8.10;4.20;;;8.80;48.30;;;;;;5112595;27;20429;-85
2022/03/19 05:40:39;;;;;;;11.67;4.53;;;8.80;48.20;;;;;;5129144;27;20493;-84
2022/03/19 05:43:06;;;;;;;11.00;4.73;;;8.70;48.30;;;;;;5130284;27;20441;-82
2022/03/19 05:45:34;;;;;;;8.37;5.10;;;8.70;48.20;;;;;;5113452;27;20835;-85
2022/03/19 05:48:02;;;;;;;11.90;4.80;;;8.80;48.30;;;;;;5129363;27;20885;-85
2022/03/19 05:50:31;;;;;;;15.43;4.80;;;8.80;48.40;;;;;;5114319;27;20451;-85
2022/03/19 05:52:58;;;;;;;6.30;3.50;;;8.70;48.10;;;;;;5130665;27;20506;-85
2022/03/19 05:55:24;;;;;;;10.50;4.27;;;8.70;48.10;;;;;;5135026;27;20983;-85
2022/03/19 05:57:53;;;;;;;6.63;3.93;;;8.70;48.30;;;;;;5132026;27;20546;-84
2022/03/19 06:00:20;;;;;;;8.37;4.90;;;8.70;48.40;;;;;;5118797;27;20510;-85
2022/03/19 06:02:47;;;;;;;10.47;4.80;;;8.70;48.40;;;;;;5114797;27;20519;-84
2022/03/19 06:05:15;;;;;;;13.60;6.83;;;8.70;48.30;;;;;;5114246;27;20476;-83
2022/03/19 06:07:42;;;;;;;10.10;5.47;;;8.70;48.50;;;;;;5116923;27;20451;-85
2022/03/19 06:10:10;;;;;;;11.27;5.77;;;8.70;48.70;;;;;;5115942;27;20944;-86
2022/03/19 06:12:37;;;;;;;11.67;4.97;;;8.70;48.80;;;;;;5115502;27;20445;-85
2022/03/19 06:15:05;;;;;;;10.90;5.63;;;8.70;48.70;;;;;;5132174;27;20462;-85
2022/03/19 06:17:32;;;;;;;8.50;5.13;;;8.70;48.60;;;;;;5113882;27;20714;-85
2022/03/19 06:19:59;;;;;;;13.90;4.80;;;8.60;48.80;;;;;;5117641;27;20943;-85
2022/03/19 06:22:27;;;;;;;9.03;4.53;;;8.50;49.20;;;;;;5116810;27;20449;-85
2022/03/19 06:24:54;;;;;;;11.30;6.17;;;8.50;49.20;;;;;;5131752;27;21029;-85
2022/03/19 06:27:22;;;;;;;46.17;19.10;;;8.50;49.60;;;;;;5113716;27;20451;-85
2022/03/19 06:29:49;;;;;;;67.20;31.43;;;8.30;49.80;;;;;;5112186;27;20519;-85
2022/03/19 06:32:20;;;;;;;24.07;10.13;;;8.40;50.00;;;;;;5098964;27;20479;-83
2022/03/19 06:34:48;;;;;;;16.93;7.90;;;8.40;50.00;;;;;;5097163;27;20472;-86
2022/03/19 06:37:20;;;;;;;17.80;6.47;;;8.50;49.70;;;;;;5104888;27;21321;-85
2022/03/19 06:39:53;;;;;;;10.67;5.37;;;8.50;49.50;;;;;;5087464;27;20956;-85
2022/03/19 06:42:20;;;;;;;10.57;5.47;;;8.50;49.40;;;;;;5090223;27;20532;-86
2022/03/19 06:44:47;;;;;;;11.33;5.67;;;8.50;49.90;;;;;;5123336;27;21038;-87
2022/03/19 06:47:14;;;;;;;8.70;4.23;;;8.50;49.90;;;;;;5100940;27;20823;-85
2022/03/19 06:49:41;;;;;;;8.70;5.50;;;8.40;49.60;;;;;;5134152;27;20453;-86
2022/03/19 06:52:10;;;;;;;13.53;5.40;;;8.50;49.90;;;;;;5133556;27;20487;-86
2022/03/19 06:54:37;;;;;;;9.50;5.10;;;8.50;49.90;;;;;;5133592;27;21031;-86
2022/03/19 06:57:05;;;;;;;7.63;4.77;;;8.50;50.40;;;;;;5117820;27;20550;-85
2022/03/19 06:59:32;;;;;;;12.63;5.63;;;8.50;49.90;;;;;;5133752;27;21449;-86
2022/03/19 07:02:00;;;;;;;14.13;6.30;;;8.50;49.90;;;;;;5114269;27;21231;-86
2022/03/19 07:04:27;;;;;;;19.37;5.97;;;8.60;50.50;;;;;;5097219;27;20457;-85
2022/03/19 07:06:54;;;;;;;11.13;6.30;;;8.60;50.00;;;;;;5117695;27;20939;-86
2022/03/19 07:09:21;;;;;;;16.10;7.20;;;8.70;50.20;;;;;;5133561;27;20450;-85
2022/03/19 07:11:48;;;;;;;16.37;6.63;;;8.70;50.40;;;;;;5115972;27;20501;-86
2022/03/19 07:14:17;;;;;;;14.70;6.10;;;8.80;50.20;;;;;;5115815;27;20458;-85
2022/03/19 07:16:46;;;;;;;9.70;5.57;;;8.80;50.20;;;;;;5115192;27;20821;-85
2022/03/19 07:19:13;;;;;;;12.60;6.50;;;8.80;49.80;;;;;;5112270;27;20875;-86
2022/03/19 07:21:40;;;;;;;12.90;8.10;;;8.80;50.20;;;;;;5112198;27;20595;-86
2022/03/19 07:24:07;;;;;;;19.20;10.20;;;8.90;50.40;;;;;;5128361;27;20811;-87
2022/03/19 07:26:34;;;;;;;35.37;18.30;;;8.90;50.40;;;;;;5101328;27;20441;-87
2022/03/19 07:29:02;;;;;;;19.60;9.33;;;9.10;50.70;;;;;;5114752;27;21028;-85
2022/03/19 07:31:30;;;;;;;13.10;8.13;;;9.00;50.10;;;;;;5132166;27;20448;-85
2022/03/19 07:33:57;;;;;;;9.97;6.90;;;9.00;50.00;;;;;;5130338;27;21099;-85
2022/03/19 07:36:24;;;;;;;14.00;7.20;;;9.00;50.70;;;;;;5130339;27;20468;-85
2022/03/19 07:38:51;;;;;;;16.63;7.93;;;9.00;50.60;;;;;;5096610;27;20817;-86
2022/03/19 07:44:04;;;;;;;16.53;6.60;;;9.10;50.50;;;;;;5119634;27;20509;-86
2022/03/19 07:46:34;;;;;;;23.53;8.23;;;9.20;50.50;;;;;;5120892;27;20537;-86
2022/03/19 07:49:02;;;;;;;15.87;6.67;;;9.00;51.20;;;;;;5111387;27;20577;-85
2022/03/19 07:51:29;;;;;;;18.40;9.03;;;9.10;51.40;;;;;;5121147;27;20549;-85
2022/03/19 07:53:57;;;;;;;14.87;8.33;;;9.00;52.30;;;;;;5128073;27;20446;-85
2022/03/19 07:56:24;;;;;;;17.70;8.87;;;9.10;52.30;;;;;;5085691;27;21448;-87
2022/03/19 07:58:52;;;;;;;14.67;8.53;;;9.10;52.60;;;;;;5111429;27;20532;-85
2022/03/19 08:01:19;;;;;;;21.77;10.47;;;9.30;52.40;;;;;;5109487;27;20505;-86
2022/03/19 08:03:47;;;;;;;22.67;10.17;;;9.30;52.50;;;;;;5127865;27;20450;-85
2022/03/19 08:06:15;;;;;;;19.90;10.87;;;9.30;52.60;;;;;;5112430;27;21031;-85
2022/03/19 08:08:41;;;;;;;22.67;9.70;;;9.40;52.90;;;;;;5128572;27;20450;-87
2022/03/19 08:11:09;;;;;;;15.57;9.17;;;9.60;52.30;;;;;;5129620;27;20449;-86
2022/03/19 08:13:36;;;;;;;26.20;10.63;;;9.80;51.90;;;;;;5110914;27;20488;-88
2022/03/19 08:16:03;;;;;;;33.47;12.60;;;9.90;51.70;;;;;;5108945;27;20464;-87
2022/03/19 08:18:30;;;;;;;19.53;10.17;;;9.90;51.80;;;;;;5108876;27;20472;-86
2022/03/19 08:20:59;;;;;;;20.47;9.73;;;10.00;50.70;;;;;;5092138;27;20495;-86
2022/03/19 08:23:26;;;;;;;20.40;10.27;;;10.20;50.20;;;;;;5107508;27;20456;-86
2022/03/19 08:25:53;;;;;;;18.60;9.90;;;10.40;49.70;;;;;;5128591;27;20557;-86
2022/03/19 08:28:20;;;;;;;16.40;8.80;;;10.40;49.40;;;;;;5108892;27;20838;-86
2022/03/19 08:30:47;;;;;;;21.03;9.53;;;10.50;49.60;;;;;;5092422;27;20441;-86
2022/03/19 08:33:14;;;;;;;20.97;9.17;;;10.60;49.30;;;;;;5118521;27;20949;-86
2022/03/19 08:35:41;;;;;;;16.57;8.60;;;10.80;49.00;;;;;;5109109;27;20469;-84
2022/03/19 08:40:53;;;;;;;13.30;9.20;;;11.00;47.60;;;;;;5097013;27;20838;-86
2022/03/19 08:43:21;;;;;;;19.97;7.73;;;11.10;47.60;;;;;;5091196;27;20896;-86
2022/03/19 08:45:48;;;;;;;18.70;8.47;;;11.40;47.30;;;;;;5104758;27;21086;-85
2022/03/19 08:48:18;;;;;;;26.87;10.80;;;11.30;47.20;;;;;;5126807;27;20439;-85
2022/03/19 08:50:45;;;;;;;19.63;9.60;;;11.30;47.50;;;;;;5092323;27;20599;-84
2022/03/19 08:53:13;;;;;;;18.57;8.97;;;11.40;47.00;;;;;;5128785;27;20449;-86
2022/03/19 08:55:40;;;;;;;16.93;8.50;;;11.50;47.40;;;;;;5127750;27;20998;-86
2022/03/19 08:58:07;;;;;;;16.03;9.73;;;11.50;46.30;;;;;;5127050;27;20468;-84
2022/03/19 09:00:34;;;;;;;21.13;8.10;;;11.40;46.30;;;;;;5129314;27;20458;-85
2022/03/19 09:03:02;;;;;;;10.80;5.97;;;11.60;46.70;;;;;;5127659;27;20482;-85
2022/03/19 09:05:32;;;;;;;10.33;6.10;;;11.60;46.10;;;;;;5128546;27;20462;-84
2022/03/19 09:07:59;;;;;;;14.97;5.87;;;11.60;45.50;;;;;;5108174;27;20536;-87
2022/03/19 09:10:27;;;;;;;6.87;5.00;;;11.70;45.50;;;;;;5128028;27;20532;-86
2022/03/19 09:12:55;;;;;;;8.63;5.27;;;11.80;45.30;;;;;;5083960;27;20527;-85
2022/03/19 09:15:22;;;;;;;12.73;5.70;;;11.80;44.80;;;;;;5128216;27;20515;-84
2022/03/19 09:17:49;;;;;;;8.87;5.00;;;11.60;44.60;;;;;;5129774;27;20546;-85
2022/03/19 09:20:17;;;;;;;5.07;3.77;;;11.80;44.90;;;;;;5111460;27;20547;-84
2022/03/19 09:22:43;;;;;;;9.80;5.57;;;11.90;43.60;;;;;;5110883;27;20833;-84
2022/03/19 09:25:10;;;;;;;13.63;5.53;;;11.80;43.50;;;;;;5130855;27;20465;-84
2022/03/19 09:27:39;;;;;;;9.20;5.47;;;11.60;43.40;;;;;;5099947;27;20442;-86
2022/03/19 09:30:09;;;;;;;8.57;4.90;;;11.80;43.30;;;;;;5085987;27;20450;-85
2022/03/19 09:32:36;;;;;;;7.00;4.53;;;12.00;43.10;;;;;;5131239;27;20532;-86
2022/03/19 09:35:04;;;;;;;6.07;4.03;;;12.10;42.40;;;;;;5120489;27;20476;-86
2022/03/19 09:37:31;;;;;;;6.20;4.13;;;12.10;40.90;;;;;;5095258;27;20948;-87
2022/03/19 09:39:59;;;;;;;6.60;2.93;;;12.20;39.80;;;;;;5111468;27;20532;-85
2022/03/19 09:42:28;;;;;;;6.07;3.70;;;12.60;39.20;;;;;;5111305;27;20448;-87
2022/03/19 09:44:57;;;;;;;4.93;3.00;;;12.60;38.10;;;;;;5088738;27;20476;-85
2022/03/19 09:47:25;;;;;;;6.00;3.50;;;12.70;37.20;;;;;;5111291;27;20448;-85
2022/03/19 09:49:52;;;;;;;3.93;2.73;;;12.70;36.90;;;;;;5111514;27;20448;-85
2022/03/19 09:52:21;;;;;;;5.97;3.53;;;12.80;36.30;;;;;;5115430;27;20498;-85
2022/03/19 09:54:48;;;;;;;6.43;3.50;;;12.90;36.60;;;;;;5120301;27;20541;-86
2022/03/19 09:57:15;;;;;;;6.33;3.97;;;13.20;35.50;;;;;;5111838;27;20496;-86
2022/03/19 09:59:42;;;;;;;6.40;3.60;;;13.70;36.20;;;;;;5131108;27;20483;-87
2022/03/19 10:02:11;;;;;;;10.17;3.93;;;14.10;34.40;;;;;;5113518;27;20479;-85
2022/03/19 10:04:41;;;;;;;5.43;4.03;;;14.30;36.20;;;;;;5110368;27;20476;-85
2022/03/19 10:09:56;;;;;;;6.03;4.23;;;14.00;35.70;;;;;;5109441;27;21048;-85
2022/03/19 10:12:25;;;;;;;5.03;3.50;;;14.10;35.80;;;;;;5130940;27;20540;-82
2022/03/19 10:14:54;;;;;;;4.90;3.90;;;13.90;34.30;;;;;;5129138;27;20485;-86
2022/03/19 10:17:30;;;;;;;7.10;3.53;;;13.90;34.30;;;;;;5131797;27;20617;-86
2022/03/19 10:20:02;;;;;;;9.13;3.30;;;14.10;33.10;;;;;;5095233;27;21042;-87
2022/03/19 10:22:29;;;;;;;6.87;3.90;;;14.20;32.60;;;;;;5100949;27;20583;-87
2022/03/19 10:24:58;;;;;;;8.00;3.80;;;14.40;34.10;;;;;;5103450;27;20847;-86
2022/03/19 10:27:25;;;;;;;6.07;3.13;;;14.70;32.70;;;;;;5130608;27;20446;-84
2022/03/19 10:30:07;;;;;;;4.47;3.10;;;14.70;33.60;;;;;;5105303;27;20450;-85
2022/03/19 10:32:36;;;;;;;7.03;4.03;;;14.20;34.80;;;;;;5130033;27;20493;-84
2022/03/19 10:35:04;;;;;;;4.90;3.40;;;14.30;34.80;;;;;;5109949;27;20875;-84
2022/03/19 10:37:34;;;;;;;4.13;3.37;;;14.40;34.90;;;;;;5130008;27;21143;-84
2022/03/19 10:40:02;;;;;;;7.93;3.63;;;14.40;34.70;;;;;;5115061;27;20491;-85
2022/03/19 10:42:36;;;;;;;3.90;3.40;;;14.70;33.70;;;;;;5100364;27;20438;-85
2022/03/19 10:45:03;;;;;;;9.00;2.50;;;15.00;32.50;;;;;;5132683;27;20461;-85
2022/03/19 10:47:41;;;;;;;8.67;4.50;;;15.10;30.10;;;;;;5134523;27;20457;-86
2022/03/19 10:50:09;;;;;;;2.87;2.57;;;15.20;29.20;;;;;;5107861;27;20937;-83
2022/03/19 10:52:36;;;;;;;11.33;4.13;;;15.00;29.00;;;;;;5116919;27;20460;-84
2022/03/19 10:55:07;;;;;;;3.00;2.50;;;14.80;29.10;;;;;;5115072;27;20500;-84
2022/03/19 10:57:34;;;;;;;5.50;2.90;;;14.80;29.10;;;;;;5117049;27;20468;-83
2022/03/19 11:00:01;;;;;;;4.40;2.87;;;15.00;29.80;;;;;;5119201;27;20462;-85
2022/03/19 11:02:30;;;;;;;5.13;3.03;;;15.10;28.60;;;;;;5135650;27;20477;-84
2022/03/19 11:04:59;;;;;;;6.30;3.37;;;15.20;28.70;;;;;;5134593;27;21558;-83
2022/03/19 11:07:28;;;;;;;3.80;3.27;;;15.40;28.70;;;;;;5120762;27;20485;-83
2022/03/19 11:09:57;;;;;;;8.53;3.30;;;15.60;28.00;;;;;;5117897;27;20652;-82
2022/03/19 11:12:28;;;;;;;3.83;3.57;;;15.90;27.70;;;;;;5137062;27;20467;-84
2022/03/19 11:14:58;;;;;;;6.47;2.53;;;16.10;27.30;;;;;;5136872;27;20476;-83
2022/03/19 11:17:27;;;;;;;4.00;2.87;;;16.20;26.90;;;;;;5125200;27;21013;-83
2022/03/19 11:19:56;;;;;;;3.10;2.13;;;16.20;27.60;;;;;;5117876;27;20995;-84
2022/03/19 11:22:25;;;;;;;2.87;2.07;;;16.50;27.10;;;;;;5137399;27;20537;-84
2022/03/19 11:24:56;;;;;;;4.43;1.80;;;16.20;26.50;;;;;;5115059;27;20487;-85
2022/03/19 11:27:24;;;;;;;3.77;2.30;;;15.60;25.50;;;;;;5089386;27;20449;-84
2022/03/19 11:29:51;;;;;;;2.80;1.80;;;15.60;26.40;;;;;;5113310;27;20446;-83
2022/03/19 11:32:23;;;;;;;2.90;1.70;;;15.80;26.60;;;;;;5125491;27;20460;-83
2022/03/19 11:34:56;;;;;;;5.10;2.20;;;15.80;25.60;;;;;;5117391;27;20473;-82
2022/03/19 11:37:25;;;;;;;1.90;1.70;;;15.70;25.60;;;;;;5133822;27;21114;-84
2022/03/19 11:40:04;;;;;;;3.07;1.97;;;15.50;25.70;;;;;;5132557;27;20823;-84
2022/03/19 11:42:32;;;;;;;2.93;2.00;;;15.70;25.90;;;;;;5118184;27;20814;-84
2022/03/19 11:45:09;;;;;;;3.33;2.43;;;15.70;25.10;;;;;;5112444;27;20497;-84
2022/03/19 11:47:38;;;;;;;3.63;2.13;;;15.90;25.40;;;;;;5130285;27;20537;-84
2022/03/19 11:50:19;;;;;;;3.30;2.23;;;16.10;25.70;;;;;;5113574;27;20447;-86
2022/03/19 11:53:07;;;;;;;4.93;2.27;;;16.20;24.70;;;;;;5099729;27;20446;-87
2022/03/19 11:55:39;;;;;;;3.77;2.40;;;16.10;25.20;;;;;;5130173;27;20983;-85
2022/03/19 11:58:13;;;;;;;6.07;2.67;;;16.40;25.70;;;;;;5117668;27;20483;-86
2022/03/19 12:00:41;;;;;;;4.83;2.53;;;17.00;25.30;;;;;;5132560;27;20780;-87
2022/03/19 12:03:13;;;;;;;6.00;3.00;;;16.80;25.90;;;;;;5110758;27;20453;-87
2022/03/19 12:05:43;;;;;;;5.60;2.80;;;16.60;25.80;;;;;;5115578;27;20469;-86
2022/03/19 12:08:18;;;;;;;2.30;2.10;;;16.70;24.20;;;;;;5101141;27;20449;-84
2022/03/19 12:10:59;;;;;;;6.60;3.40;;;16.80;24.30;;;;;;5133768;27;20454;-84
2022/03/19 12:13:47;;;;;;;3.20;2.43;;;16.80;23.90;;;;;;5116487;27;20433;-84
2022/03/19 12:16:35;;;;;;;3.23;2.93;;;17.00;23.80;;;;;;5131551;27;20466;-84
2022/03/19 12:19:03;;;;;;;5.53;3.50;;;16.80;24.00;;;;;;5112862;27;20824;-84
2022/03/19 12:21:34;;;;;;;4.67;2.53;;;16.90;24.10;;;;;;5100874;27;20437;-86
2022/03/19 12:24:22;;;;;;;4.27;3.40;;;16.30;23.40;;;;;;5131899;27;20445;-86
2022/03/19 12:26:51;;;;;;;4.40;2.90;;;16.00;23.90;;;;;;5097187;27;20442;-84
2022/03/19 12:29:20;;;;;;;4.80;2.43;;;16.10;24.20;;;;;;5098449;27;20536;-85
2022/03/19 12:31:50;;;;;;;6.43;3.03;;;16.40;23.80;;;;;;5109929;27;20444;-84
2022/03/19 12:34:18;;;;;;;5.63;3.33;;;16.50;23.90;;;;;;5081357;27;20450;-85
2022/03/19 12:36:45;;;;;;;2.70;2.50;;;16.30;23.70;;;;;;5110071;27;21255;-85
2022/03/19 12:39:14;;;;;;;4.70;4.10;;;16.30;23.60;;;;;;5131770;27;20537;-85
2022/03/19 12:41:42;;;;;;;5.90;3.20;;;16.40;24.10;;;;;;5119906;27;20446;-85
2022/03/19 12:44:18;;;;;;;4.50;2.63;;;16.60;24.20;;;;;;5113889;27;20452;-86
2022/03/19 12:46:47;;;;;;;4.77;2.57;;;16.50;23.40;;;;;;5130174;27;20449;-85
2022/03/19 12:49:17;;;;;;;2.87;2.50;;;16.30;23.40;;;;;;5105251;27;20509;-85
2022/03/19 12:51:46;;;;;;;4.20;2.57;;;16.40;23.80;;;;;;5111664;27;20998;-85
2022/03/19 12:54:24;;;;;;;3.57;2.70;;;16.80;23.50;;;;;;5115012;27;20518;-84
2022/03/19 12:56:52;;;;;;;6.73;2.77;;;17.10;23.80;;;;;;5113267;27;20442;-84
2022/03/19 12:59:22;;;;;;;2.20;1.97;;;17.30;22.20;;;;;;5133330;27;20508;-84
2022/03/19 13:01:50;;;;;;;3.13;1.70;;;17.40;22.40;;;;;;5115427;27;20971;-84
2022/03/19 13:04:21;;;;;;;2.87;1.80;;;17.30;22.20;;;;;;5134037;27;20457;-84
2022/03/19 13:06:49;;;;;;;2.23;1.57;;;17.50;21.70;;;;;;5086979;27;20450;-86
2022/03/19 13:09:16;;;;;;;3.00;2.07;;;17.10;20.90;;;;;;5090042;27;20648;-83